Woodbine, Iowa
Current Conditions -  °F | °C
As of 3:15 PM on Sunday 23 Nov 2014 (Local Time) from KHNR Reporting Station
Overcast Overcast  
Wind Chill: 36°   Ceiling: 3500
Heat Index: 45°   Visibility: 10mi
Dew Point: 39°   Wind: 21mph
Humidity: 81%   Direction: 330°NNW
Pressure: 29.48"   Gusts: 30mph
Location:  41.74°N, 95.7°W
Report Text: KHNR 232115Z AUTO 33018G26KT 10SM BKN035 BKN042 OVC055 07/04 A2948 RMK AO2
Loading
Personal Weather Stations






























Interactive Weather Map New forecast layout! Learn more

10-Day Weather Forecast

Advertisements
Track Severe Weather on mobile